Aura, New Jersey
Current Conditions -  °F | °C
As of 4:54 AM on Friday 31 Oct 2014 (Local Time) from KPHL Reporting Station
Few Clouds Few Clouds  
Wind Chill: 39°   Ceiling: Unl
Heat Index: 42°   Visibility: 10mi
Dew Point: 33°   Wind: 5mph
Humidity: 70%   Direction: 350°N
Pressure: 30.02"   Gusts: NA
Location:  39.6996°N, 75.1187°W
Report Text: KPHL 310854Z 35004KT 10SM FEW060 06/01 A3002 RMK AO2 SLP166 T00560006 55006
Loading
Personal Weather Stations






























Interactive Weather Map
Tropical Storm Tracking
New forecast layout! Learn more

10-Day Weather Forecast

Advertisements
Track Severe Weather on mobile